createdAt,value
2023-05-22T00:00:21.416Z,6.63
2023-05-22T00:02:50.957Z,5.97
2023-05-22T00:05:21.248Z,6.68
2023-05-22T00:07:49.827Z,6.32
2023-05-22T00:10:18.078Z,6.80
2023-05-22T00:12:46.241Z,6.10
2023-05-22T00:15:14.403Z,6.22
2023-05-22T00:17:43.215Z,6.05
2023-05-22T00:20:11.948Z,5.53
2023-05-22T00:22:41.455Z,6.60
2023-05-22T00:25:11.332Z,5.82
2023-05-22T00:27:39.440Z,6.57
2023-05-22T00:30:09.046Z,5.78
2023-05-22T00:32:37.284Z,6.57
2023-05-22T00:35:06.609Z,5.80
2023-05-22T00:37:34.782Z,6.32
2023-05-22T00:40:05.966Z,6.38
2023-05-22T00:42:34.275Z,5.78
2023-05-22T00:45:02.361Z,5.88
2023-05-22T00:47:30.598Z,6.15
2023-05-22T00:49:59.300Z,6.45
2023-05-22T00:52:27.672Z,5.78
2023-05-22T00:54:55.935Z,5.90
2023-05-22T00:57:25.807Z,5.88
2023-05-22T00:59:54.063Z,5.93
2023-05-22T01:02:22.306Z,5.35
2023-05-22T01:04:50.395Z,5.90
2023-05-22T01:07:18.836Z,6.30
2023-05-22T01:09:46.989Z,6.20
2023-05-22T01:12:21.897Z,5.32
2023-05-22T01:15:05.095Z,5.90
2023-05-22T01:20:14.418Z,6.72
2023-05-22T01:23:21.528Z,6.00
2023-05-22T01:26:13.741Z,5.43
2023-05-22T01:29:04.232Z,5.45
2023-05-22T01:31:40.336Z,6.10
2023-05-22T01:34:12.106Z,5.65
2023-05-22T01:36:42.234Z,5.75
2023-05-22T01:39:10.676Z,5.90
2023-05-22T01:41:38.904Z,5.93
2023-05-22T01:44:07.040Z,5.85
2023-05-22T01:46:36.630Z,6.18
2023-05-22T01:49:04.725Z,5.40
2023-05-22T01:51:44.734Z,6.03
2023-05-22T01:54:31.710Z,5.65
2023-05-22T01:57:07.302Z,5.07
2023-05-22T01:59:41.439Z,6.03
2023-05-22T02:02:12.716Z,5.22
2023-05-22T02:04:46.163Z,5.35
2023-05-22T02:07:15.937Z,5.55
2023-05-22T02:09:47.397Z,5.68
2023-05-22T02:12:16.456Z,5.45
2023-05-22T02:14:44.786Z,5.53
2023-05-22T02:17:14.465Z,5.75
2023-05-22T02:19:42.620Z,5.45
2023-05-22T02:22:13.764Z,5.32
2023-05-22T02:24:44.465Z,5.47
2023-05-22T02:27:12.949Z,5.72
2023-05-22T02:29:41.219Z,5.25
2023-05-22T02:32:09.700Z,5.47
2023-05-22T02:34:39.288Z,6.10
2023-05-22T02:37:07.420Z,5.35
2023-05-22T02:39:35.517Z,5.75
2023-05-22T02:42:03.795Z,5.28
2023-05-22T02:44:31.899Z,5.25
2023-05-22T02:47:00.330Z,5.45
2023-05-22T02:49:28.421Z,5.65
2023-05-22T02:52:00.393Z,5.00
2023-05-22T02:54:28.548Z,4.90
2023-05-22T02:56:56.894Z,4.70
2023-05-22T02:59:25.266Z,5.15
2023-05-22T03:01:54.543Z,5.60
2023-05-22T03:04:22.794Z,4.75
2023-05-22T03:06:50.926Z,5.43
2023-05-22T03:09:20.617Z,5.45
2023-05-22T03:11:48.884Z,4.68
2023-05-22T03:14:17.036Z,4.90
2023-05-22T03:16:45.317Z,6.30
2023-05-22T03:19:16.945Z,4.97
2023-05-22T03:21:45.372Z,6.55
2023-05-22T03:24:13.631Z,4.75
2023-05-22T03:26:43.920Z,5.30
2023-05-22T03:29:12.182Z,4.57
2023-05-22T03:31:40.288Z,5.28
2023-05-22T03:34:08.688Z,4.28
2023-05-22T03:36:36.907Z,6.07
2023-05-22T03:39:05.527Z,4.85
2023-05-22T03:41:33.679Z,6.32
2023-05-22T03:44:04.173Z,6.38
2023-05-22T03:46:32.287Z,5.28
2023-05-22T03:49:00.469Z,5.22
2023-05-22T03:51:28.789Z,5.72
2023-05-22T03:53:56.964Z,5.07
2023-05-22T03:56:25.056Z,5.38
2023-05-22T03:58:53.174Z,4.80
2023-05-22T04:01:23.627Z,4.40
2023-05-22T04:03:51.925Z,5.00
2023-05-22T04:06:21.797Z,5.30
2023-05-22T04:08:50.050Z,5.00
2023-05-22T04:11:18.622Z,5.00
2023-05-22T04:13:46.801Z,5.38
2023-05-22T04:16:17.797Z,5.18
2023-05-22T04:18:47.283Z,4.85
2023-05-22T04:21:15.470Z,4.80
2023-05-22T04:23:44.575Z,4.10
2023-05-22T04:26:13.281Z,4.80
2023-05-22T04:28:46.267Z,4.72
2023-05-22T04:33:42.845Z,4.75
2023-05-22T04:36:13.058Z,6.95
2023-05-22T04:38:41.517Z,4.55
2023-05-22T04:41:10.310Z,5.30
2023-05-22T04:43:38.814Z,4.60
2023-05-22T04:46:08.371Z,4.43
2023-05-22T04:48:36.935Z,4.72
2023-05-22T04:51:06.328Z,4.90
2023-05-22T04:53:36.636Z,5.05
2023-05-22T04:56:05.073Z,4.93
2023-05-22T04:58:33.323Z,5.22
2023-05-22T05:01:01.631Z,5.78
2023-05-22T05:03:29.920Z,4.38
2023-05-22T05:05:59.578Z,5.15
2023-05-22T05:08:27.724Z,4.88
2023-05-22T05:10:57.307Z,4.88
2023-05-22T05:13:25.526Z,5.13
2023-05-22T05:15:53.694Z,3.92
2023-05-22T05:18:21.824Z,4.63
2023-05-22T05:20:49.996Z,4.88
2023-05-22T05:23:18.095Z,4.82
2023-05-22T05:25:46.484Z,4.47
2023-05-22T05:28:16.033Z,4.65
2023-05-22T05:30:44.261Z,3.92
2023-05-22T05:33:13.017Z,4.53
2023-05-22T05:35:43.000Z,5.18
2023-05-22T05:38:11.319Z,4.35
2023-05-22T05:40:39.629Z,5.55
2023-05-22T05:43:09.263Z,5.43
2023-05-22T05:45:39.182Z,4.78
2023-05-22T05:48:08.256Z,4.88
2023-05-22T05:50:36.941Z,4.50
2023-05-22T05:53:05.106Z,4.30
2023-05-22T05:55:34.548Z,4.85
2023-05-22T05:58:02.827Z,4.93
2023-05-22T06:00:31.390Z,4.15
2023-05-22T06:03:01.003Z,4.20
2023-05-22T06:05:30.057Z,5.80
2023-05-22T06:07:58.940Z,6.05
2023-05-22T06:10:27.125Z,4.68
2023-05-22T06:12:55.258Z,4.28
2023-05-22T06:15:23.378Z,4.53
2023-05-22T06:17:51.728Z,5.07
2023-05-22T06:20:21.381Z,5.82
2023-05-22T06:22:49.471Z,4.68
2023-05-22T06:25:17.770Z,5.88
2023-05-22T06:27:45.864Z,5.20
2023-05-22T06:30:18.445Z,4.22
2023-05-22T06:32:53.800Z,5.45
2023-05-22T06:35:23.350Z,5.15
2023-05-22T06:37:51.384Z,4.30
2023-05-22T06:40:19.459Z,5.05
2023-05-22T06:42:47.624Z,4.10
2023-05-22T06:45:17.801Z,4.13
2023-05-22T06:47:46.076Z,4.63
2023-05-22T06:50:14.247Z,4.45
2023-05-22T06:52:43.747Z,4.15
2023-05-22T06:55:11.905Z,4.70
2023-05-22T06:57:40.204Z,5.93
2023-05-22T07:00:12.003Z,4.25
2023-05-22T07:02:43.118Z,5.15
2023-05-22T07:05:11.370Z,5.32
2023-05-22T07:07:39.630Z,4.72
2023-05-22T07:10:10.185Z,4.63
2023-05-22T07:12:38.506Z,4.20
2023-05-22T07:15:10.586Z,4.63
2023-05-22T07:17:41.829Z,4.38
2023-05-22T07:20:11.041Z,4.18
2023-05-22T07:22:39.267Z,4.03
2023-05-22T07:25:09.841Z,4.63
2023-05-22T07:27:37.929Z,6.47
2023-05-22T07:30:07.314Z,4.68
2023-05-22T07:32:35.538Z,4.90
2023-05-22T07:35:03.813Z,4.00
2023-05-22T07:37:32.261Z,4.55
2023-05-22T07:40:00.408Z,5.28
2023-05-22T07:42:30.237Z,4.40
2023-05-22T07:44:58.485Z,4.30
2023-05-22T07:47:26.687Z,4.97
2023-05-22T07:49:55.090Z,4.72
2023-05-22T07:52:23.923Z,4.32
2023-05-22T07:54:52.114Z,4.30
2023-05-22T07:57:20.251Z,3.70
2023-05-22T07:59:50.885Z,3.70
2023-05-22T08:02:19.414Z,4.00
2023-05-22T08:04:48.351Z,5.35
2023-05-22T08:07:16.491Z,4.70
2023-05-22T08:09:46.768Z,4.50
2023-05-22T08:12:14.952Z,4.18
2023-05-22T08:14:43.147Z,4.28
2023-05-22T08:17:12.897Z,4.05
2023-05-22T08:19:41.200Z,4.45
2023-05-22T08:22:09.378Z,4.20
2023-05-22T08:24:37.389Z,4.55
2023-05-22T08:27:06.049Z,4.13
2023-05-22T08:29:34.230Z,4.63
2023-05-22T08:32:02.373Z,3.72
2023-05-22T08:34:33.067Z,4.25
2023-05-22T08:37:01.206Z,4.50
2023-05-22T08:39:29.624Z,5.45
2023-05-22T08:41:57.736Z,4.10
2023-05-22T08:44:26.243Z,3.67
2023-05-22T08:46:56.660Z,5.00
2023-05-22T08:49:25.854Z,4.00
2023-05-22T08:52:01.306Z,5.18
2023-05-22T08:54:30.750Z,4.10
2023-05-22T08:56:59.347Z,4.10
2023-05-22T08:59:28.172Z,3.80
2023-05-22T09:01:58.060Z,4.35
2023-05-22T09:04:28.327Z,4.95
2023-05-22T09:06:57.986Z,4.57
2023-05-22T09:09:26.118Z,3.85
2023-05-22T09:11:56.370Z,4.25
2023-05-22T09:14:25.206Z,4.82
2023-05-22T09:16:54.983Z,4.32
2023-05-22T09:19:23.317Z,5.65
2023-05-22T09:21:51.427Z,4.10
2023-05-22T09:24:20.901Z,4.13
2023-05-22T09:26:49.061Z,3.67
2023-05-22T09:29:17.142Z,4.15
2023-05-22T09:31:45.575Z,3.35
2023-05-22T09:34:15.666Z,5.30
2023-05-22T09:36:44.252Z,4.60
2023-05-22T09:39:12.561Z,4.03
2023-05-22T09:41:42.015Z,3.33
2023-05-22T09:44:17.158Z,4.72
2023-05-22T09:46:47.465Z,5.28
2023-05-22T09:49:17.255Z,3.90
2023-05-22T09:51:47.921Z,3.72
2023-05-22T09:54:17.630Z,3.75
2023-05-22T09:56:50.345Z,4.15
2023-05-22T09:59:23.270Z,3.88
2023-05-22T10:04:20.687Z,3.75
2023-05-22T10:06:52.563Z,5.72
2023-05-22T10:09:24.735Z,4.78
2023-05-22T10:11:56.218Z,3.90
2023-05-22T10:14:25.576Z,3.80
2023-05-22T10:16:55.271Z,4.40
2023-05-22T10:19:27.297Z,3.95
2023-05-22T10:21:58.478Z,4.18
2023-05-22T10:24:26.731Z,3.70
2023-05-22T10:26:56.357Z,3.47
2023-05-22T10:29:30.511Z,4.40
2023-05-22T10:32:07.697Z,4.72
2023-05-22T10:34:43.506Z,3.58
2023-05-22T10:37:23.070Z,4.82
2023-05-22T10:40:02.020Z,3.92
2023-05-22T10:42:32.810Z,3.97
2023-05-22T10:45:02.279Z,4.45
2023-05-22T10:47:30.642Z,3.80
2023-05-22T10:50:08.243Z,3.65
2023-05-22T10:52:36.909Z,3.55
2023-05-22T10:55:08.635Z,4.40
2023-05-22T10:57:40.816Z,4.18
2023-05-22T11:00:11.272Z,3.73
2023-05-22T11:02:44.344Z,3.90
2023-05-22T11:05:35.291Z,3.50
2023-05-22T11:08:13.849Z,4.05
2023-05-22T11:10:54.898Z,3.42
2023-05-22T11:13:29.042Z,3.40
2023-05-22T11:15:58.298Z,3.90
2023-05-22T11:18:29.919Z,3.75
2023-05-22T11:21:00.302Z,3.72
2023-05-22T11:23:28.630Z,3.95
2023-05-22T11:25:56.766Z,3.63
2023-05-22T11:28:26.328Z,3.88
2023-05-22T11:30:55.434Z,4.40
2023-05-22T11:33:25.058Z,4.32
2023-05-22T11:35:54.932Z,4.65
2023-05-22T11:38:23.088Z,3.28
2023-05-22T11:40:53.212Z,3.88
2023-05-22T11:43:33.182Z,3.50
2023-05-22T11:46:02.855Z,3.50
2023-05-22T11:48:31.038Z,3.92
2023-05-22T11:50:59.186Z,3.75
2023-05-22T11:53:27.632Z,3.67
2023-05-22T11:55:55.709Z,4.10
2023-05-22T11:58:30.028Z,3.85
2023-05-22T12:01:02.622Z,4.03
2023-05-22T12:03:31.479Z,3.88
2023-05-22T12:06:00.003Z,4.45
2023-05-22T12:08:31.368Z,3.42
2023-05-22T12:10:59.568Z,3.35
2023-05-22T12:13:29.511Z,3.88
2023-05-22T12:16:01.315Z,2.67
2023-05-22T12:18:36.344Z,4.35
2023-05-22T12:21:07.547Z,3.30
2023-05-22T12:23:35.672Z,4.00
2023-05-22T12:26:05.576Z,3.10
2023-05-22T12:28:34.188Z,3.45
2023-05-22T12:31:03.761Z,3.58
2023-05-22T12:33:32.690Z,3.90
2023-05-22T12:36:00.886Z,3.10
2023-05-22T12:38:34.737Z,3.13
2023-05-22T12:41:03.493Z,4.10
2023-05-22T12:43:31.714Z,3.28
2023-05-22T12:46:02.378Z,3.38
2023-05-22T12:48:32.260Z,3.10
2023-05-22T12:51:00.467Z,3.35
2023-05-22T12:53:28.653Z,4.10
2023-05-22T12:55:56.772Z,4.18
2023-05-22T12:58:24.958Z,2.88
2023-05-22T13:00:53.248Z,3.78
2023-05-22T13:03:21.470Z,3.28
2023-05-22T13:05:50.960Z,3.38
2023-05-22T13:08:19.104Z,3.95
2023-05-22T13:10:47.180Z,2.78
2023-05-22T13:13:15.450Z,3.42
2023-05-22T13:15:44.543Z,4.38
2023-05-22T13:18:12.937Z,3.17
2023-05-22T13:20:41.033Z,3.63
2023-05-22T13:23:10.496Z,3.38
2023-05-22T13:25:39.067Z,2.92
2023-05-22T13:28:07.573Z,3.90
2023-05-22T13:30:35.670Z,3.58
2023-05-22T13:33:03.883Z,3.35
2023-05-22T13:35:32.158Z,3.83
2023-05-22T13:38:00.322Z,3.35
2023-05-22T13:40:29.848Z,2.95
2023-05-22T13:42:57.978Z,3.33
2023-05-22T13:45:27.276Z,3.03
2023-05-22T13:47:55.903Z,3.92
2023-05-22T13:50:24.058Z,3.38
2023-05-22T13:52:52.131Z,4.53
2023-05-22T13:55:20.528Z,3.70
2023-05-22T13:57:50.012Z,4.38
2023-05-22T14:00:19.197Z,3.42
2023-05-22T14:02:47.576Z,4.18
2023-05-22T14:05:16.082Z,3.70
2023-05-22T14:07:44.623Z,3.55
2023-05-22T14:10:12.842Z,3.25
2023-05-22T14:12:40.951Z,3.17
2023-05-22T14:15:11.603Z,3.67
2023-05-22T14:17:39.991Z,3.60
2023-05-22T14:20:09.090Z,3.63
2023-05-22T14:22:55.482Z,3.53
2023-05-22T14:25:25.371Z,3.83
2023-05-22T14:27:53.508Z,3.60
2023-05-22T14:30:22.993Z,3.70
2023-05-22T14:32:51.689Z,3.80
2023-05-22T14:35:20.081Z,2.75
2023-05-22T14:37:48.219Z,3.63
2023-05-22T14:40:16.319Z,4.18
2023-05-22T14:42:44.490Z,3.75
2023-05-22T14:45:13.023Z,3.00
2023-05-22T14:47:43.357Z,3.30
2023-05-22T14:50:19.189Z,3.33
2023-05-22T14:52:48.285Z,3.15
2023-05-22T14:55:16.584Z,3.55
2023-05-22T14:57:44.735Z,3.60
2023-05-22T15:00:14.247Z,2.83
2023-05-22T15:02:43.855Z,3.50
2023-05-22T15:05:12.026Z,2.80
2023-05-22T15:07:44.430Z,3.25
2023-05-22T15:10:13.505Z,3.15
2023-05-22T15:12:41.675Z,3.42
2023-05-22T15:15:10.898Z,3.35
2023-05-22T15:17:41.612Z,3.75
2023-05-22T15:20:13.113Z,3.17
2023-05-22T15:22:41.299Z,3.05
2023-05-22T15:25:11.816Z,2.70
2023-05-22T15:27:40.950Z,3.38
2023-05-22T15:30:11.428Z,3.55
2023-05-22T15:32:40.051Z,3.25
2023-05-22T15:35:09.157Z,3.03
2023-05-22T15:37:38.726Z,3.72
2023-05-22T15:40:09.648Z,3.33
2023-05-22T15:42:38.080Z,3.35
2023-05-22T15:45:07.158Z,3.63
2023-05-22T15:47:35.317Z,3.97
2023-05-22T15:50:03.884Z,2.70
2023-05-22T15:52:32.123Z,3.85
2023-05-22T15:55:01.716Z,3.67
2023-05-22T15:57:29.838Z,2.97
2023-05-22T15:59:57.956Z,3.70
2023-05-22T16:02:26.529Z,2.95
2023-05-22T16:04:57.535Z,3.58
2023-05-22T16:07:25.625Z,3.08
2023-05-22T16:09:53.865Z,4.07
2023-05-22T16:12:23.371Z,4.50
2023-05-22T16:14:51.877Z,3.25
2023-05-22T16:17:21.913Z,3.38
2023-05-22T16:19:51.192Z,3.25
2023-05-22T16:22:21.191Z,3.63
2023-05-22T16:24:49.373Z,3.40
2023-05-22T16:27:17.482Z,3.33
2023-05-22T16:29:46.939Z,3.42
2023-05-22T16:32:15.041Z,3.35
2023-05-22T16:34:43.171Z,3.67
2023-05-22T16:37:11.428Z,3.38
2023-05-22T16:39:39.923Z,3.35
2023-05-22T16:42:08.461Z,3.88
2023-05-22T16:44:36.596Z,2.83
2023-05-22T16:47:06.592Z,3.63
2023-05-22T16:49:34.968Z,3.70
2023-05-22T16:52:03.076Z,3.15
2023-05-22T16:54:31.223Z,3.53
2023-05-22T16:56:59.375Z,3.05
2023-05-22T16:59:27.475Z,3.53
2023-05-22T17:01:55.651Z,3.55
2023-05-22T17:04:27.317Z,3.15
2023-05-22T17:06:56.916Z,3.47
2023-05-22T17:09:25.113Z,3.42
2023-05-22T17:11:53.187Z,3.40
2023-05-22T17:14:21.792Z,3.72
2023-05-22T17:16:50.214Z,3.08
2023-05-22T17:19:18.841Z,3.42
2023-05-22T17:21:48.346Z,4.43
2023-05-22T17:24:16.475Z,3.38
2023-05-22T17:26:45.074Z,3.97
2023-05-22T17:29:13.231Z,4.18
2023-05-22T17:31:41.587Z,3.72
2023-05-22T17:34:09.754Z,3.50
2023-05-22T17:36:38.459Z,3.88
2023-05-22T17:39:08.029Z,3.70
2023-05-22T17:41:36.450Z,3.97
2023-05-22T17:44:04.602Z,3.53
2023-05-22T17:46:32.740Z,3.25
2023-05-22T17:49:00.996Z,3.83
2023-05-22T17:51:29.420Z,3.33
2023-05-22T17:53:58.997Z,3.90
2023-05-22T17:56:28.520Z,4.25
2023-05-22T17:58:56.808Z,3.65
2023-05-22T18:01:27.106Z,3.85
2023-05-22T18:03:55.797Z,3.42
2023-05-22T18:06:24.297Z,4.10
2023-05-22T18:08:52.670Z,4.78
2023-05-22T18:11:21.165Z,4.88
2023-05-22T18:13:51.222Z,3.78
2023-05-22T18:16:19.670Z,4.80
2023-05-22T18:18:48.400Z,4.50
2023-05-22T18:21:16.842Z,4.50
2023-05-22T18:23:45.189Z,5.95
2023-05-22T18:26:13.745Z,5.20
2023-05-22T18:28:52.239Z,4.10
2023-05-22T18:31:22.542Z,4.88
2023-05-22T18:33:51.000Z,5.25
2023-05-22T18:36:19.604Z,4.75
2023-05-22T18:38:48.526Z,4.65
2023-05-22T18:41:16.748Z,4.57
2023-05-22T18:43:45.187Z,4.57
2023-05-22T18:46:14.837Z,5.47
2023-05-22T18:48:43.298Z,6.13
2023-05-22T18:51:11.979Z,5.20
2023-05-22T18:53:40.173Z,6.72
2023-05-22T18:56:08.576Z,5.55
2023-05-22T18:58:41.293Z,5.63
2023-05-22T19:03:41.598Z,5.57
2023-05-22T19:06:10.480Z,5.57
2023-05-22T19:08:39.125Z,5.03
2023-05-22T19:11:07.744Z,5.03
2023-05-22T19:13:36.850Z,4.57
2023-05-22T19:16:05.724Z,4.95
2023-05-22T19:18:34.388Z,4.38
2023-05-22T19:21:04.384Z,4.63
2023-05-22T19:23:33.151Z,5.07
2023-05-22T19:26:01.829Z,4.72
2023-05-22T19:28:32.398Z,4.53
2023-05-22T19:31:03.248Z,4.57
2023-05-22T19:33:33.788Z,4.43
2023-05-22T19:36:06.610Z,4.47
2023-05-22T19:38:36.072Z,3.90
2023-05-22T19:41:05.469Z,4.57
2023-05-22T19:43:34.222Z,4.70
2023-05-22T19:46:02.749Z,4.95
2023-05-22T19:48:34.094Z,4.72
2023-05-22T19:51:03.904Z,5.32
2023-05-22T19:53:34.200Z,5.15
2023-05-22T19:56:10.117Z,5.50
2023-05-22T19:58:38.809Z,5.25
2023-05-22T20:01:08.458Z,5.25
2023-05-22T20:03:38.216Z,5.57
2023-05-22T20:06:14.175Z,4.47
2023-05-22T20:08:44.534Z,4.72
2023-05-22T20:11:13.933Z,4.35
2023-05-22T20:13:42.136Z,5.20
2023-05-22T20:16:13.295Z,4.90
2023-05-22T20:18:42.022Z,4.38
2023-05-22T20:21:10.976Z,4.60
2023-05-22T20:23:39.969Z,4.82
2023-05-22T20:26:09.657Z,4.95
2023-05-22T20:28:37.810Z,4.68
2023-05-22T20:31:06.083Z,5.07
2023-05-22T20:33:34.230Z,4.57
2023-05-22T20:36:02.642Z,5.03
2023-05-22T20:38:31.006Z,3.90
2023-05-22T20:40:59.758Z,5.28
2023-05-22T20:43:30.279Z,5.38
2023-05-22T20:45:58.662Z,4.60
2023-05-22T20:48:26.849Z,5.82
2023-05-22T20:50:55.136Z,6.70
2023-05-22T20:53:24.509Z,5.70
2023-05-22T20:55:55.579Z,5.30
2023-05-22T20:58:24.035Z,5.00
2023-05-22T21:00:53.678Z,5.22
2023-05-22T21:03:24.087Z,5.10
2023-05-22T21:05:53.858Z,5.00
2023-05-22T21:08:22.174Z,4.60
2023-05-22T21:10:50.302Z,5.00
2023-05-22T21:13:18.550Z,4.28
2023-05-22T21:15:46.706Z,4.80
2023-05-22T21:18:20.034Z,5.78
2023-05-22T21:20:48.141Z,6.00
2023-05-22T21:23:16.395Z,5.38
2023-05-22T21:25:44.583Z,4.75
2023-05-22T21:28:12.696Z,4.40
2023-05-22T21:30:41.288Z,4.82
2023-05-22T21:33:09.618Z,5.38
2023-05-22T21:35:39.157Z,6.20
2023-05-22T21:38:07.364Z,5.78
2023-05-22T21:40:35.443Z,5.07
2023-05-22T21:43:03.555Z,4.40
2023-05-22T21:45:32.217Z,5.75
2023-05-22T21:48:00.441Z,4.93
2023-05-22T21:50:28.575Z,5.80
2023-05-22T21:52:58.172Z,4.65
2023-05-22T21:55:26.285Z,4.55
2023-05-22T21:57:54.522Z,4.63
2023-05-22T22:00:22.857Z,4.53
2023-05-22T22:02:51.045Z,4.30
2023-05-22T22:05:19.650Z,5.05
2023-05-22T22:07:47.746Z,4.70
2023-05-22T22:10:17.407Z,5.10
2023-05-22T22:12:45.584Z,4.38
2023-05-22T22:15:14.073Z,4.88
2023-05-22T22:17:42.360Z,4.85
2023-05-22T22:20:11.636Z,4.93
2023-05-22T22:22:40.948Z,4.05
2023-05-22T22:25:09.743Z,4.32
2023-05-22T22:27:39.177Z,6.07
2023-05-22T22:30:08.779Z,4.72
2023-05-22T22:32:37.559Z,4.93
2023-05-22T22:35:06.649Z,4.95
2023-05-22T22:37:34.784Z,4.47
2023-05-22T22:40:03.300Z,5.53
2023-05-22T22:42:32.779Z,5.03
2023-05-22T22:45:02.484Z,5.28
2023-05-22T22:47:30.740Z,5.45
2023-05-22T22:49:58.987Z,5.63
2023-05-22T22:52:27.160Z,4.88
2023-05-22T22:54:55.511Z,5.60
2023-05-22T22:57:23.698Z,5.22
2023-05-22T22:59:54.752Z,5.70
2023-05-22T23:02:24.282Z,4.72
2023-05-22T23:04:52.525Z,4.95
2023-05-22T23:07:23.960Z,5.53
2023-05-22T23:09:52.112Z,5.00
2023-05-22T23:12:20.339Z,5.13
2023-05-22T23:14:50.505Z,5.07
2023-05-22T23:17:18.726Z,5.55
2023-05-22T23:19:48.273Z,5.70
2023-05-22T23:22:16.419Z,5.88
2023-05-22T23:24:44.512Z,5.32
2023-05-22T23:27:12.643Z,4.75
2023-05-22T23:29:41.379Z,5.45
2023-05-22T23:32:09.538Z,5.53
2023-05-22T23:34:37.996Z,5.43
2023-05-22T23:37:07.471Z,5.38
2023-05-22T23:39:35.585Z,5.07
2023-05-22T23:42:03.853Z,5.25
2023-05-22T23:44:32.360Z,5.80
2023-05-22T23:47:00.454Z,5.45
2023-05-22T23:49:28.908Z,5.95
2023-05-22T23:51:57.044Z,5.93
2023-05-22T23:54:26.694Z,5.03
2023-05-22T23:56:54.861Z,5.75
2023-05-22T23:59:23.426Z,5.72
